sensor_id;sensor_type;location;lat;lon;timestamp;P1;durP1;ratioP1;P2;durP2;ratioP2
11807;SDS011;5961;42.640;23.380;2022-08-03T00:00:57;1.97;;;1.87;;
11807;SDS011;5961;42.640;23.380;2022-08-03T00:03:24;3.28;;;1.90;;
11807;SDS011;5961;42.640;23.380;2022-08-03T00:05:50;2.30;;;2.10;;
11807;SDS011;5961;42.640;23.380;2022-08-03T00:08:18;2.80;;;1.95;;
11807;SDS011;5961;42.640;23.380;2022-08-03T00:10:46;1.95;;;1.83;;
11807;SDS011;5961;42.640;23.380;2022-08-03T00:13:12;1.80;;;1.70;;
11807;SDS011;5961;42.640;23.380;2022-08-03T00:15:39;2.33;;;1.80;;
11807;SDS011;5961;42.640;23.380;2022-08-03T00:18:06;3.40;;;1.95;;
11807;SDS011;5961;42.640;23.380;2022-08-03T00:20:33;2.43;;;2.17;;
11807;SDS011;5961;42.640;23.380;2022-08-03T00:23:00;2.10;;;2.00;;
11807;SDS011;5961;42.640;23.380;2022-08-03T00:25:28;2.23;;;2.10;;
11807;SDS011;5961;42.640;23.380;2022-08-03T00:27:55;3.37;;;2.20;;
11807;SDS011;5961;42.640;23.380;2022-08-03T00:30:22;2.83;;;2.10;;
11807;SDS011;5961;42.640;23.380;2022-08-03T00:32:48;2.63;;;2.17;;
11807;SDS011;5961;42.640;23.380;2022-08-03T00:35:15;4.70;;;2.30;;
11807;SDS011;5961;42.640;23.380;2022-08-03T00:37:42;2.13;;;2.03;;
11807;SDS011;5961;42.640;23.380;2022-08-03T00:40:10;2.20;;;2.00;;
11807;SDS011;5961;42.640;23.380;2022-08-03T00:42:46;2.03;;;1.90;;
11807;SDS011;5961;42.640;23.380;2022-08-03T00:45:15;2.10;;;2.00;;
11807;SDS011;5961;42.640;23.380;2022-08-03T00:47:41;2.30;;;2.20;;
11807;SDS011;5961;42.640;23.380;2022-08-03T00:50:08;2.60;;;2.40;;
11807;SDS011;5961;42.640;23.380;2022-08-03T00:52:35;3.97;;;2.03;;
11807;SDS011;5961;42.640;23.380;2022-08-03T00:55:02;2.43;;;2.33;;
11807;SDS011;5961;42.640;23.380;2022-08-03T00:57:29;4.40;;;1.90;;
11807;SDS011;5961;42.640;23.380;2022-08-03T00:59:59;2.27;;;2.07;;
11807;SDS011;5961;42.640;23.380;2022-08-03T01:02:26;1.97;;;1.87;;
11807;SDS011;5961;42.640;23.380;2022-08-03T01:04:53;3.27;;;2.00;;
11807;SDS011;5961;42.640;23.380;2022-08-03T01:07:23;2.10;;;1.90;;
11807;SDS011;5961;42.640;23.380;2022-08-03T01:09:59;2.20;;;2.10;;
11807;SDS011;5961;42.640;23.380;2022-08-03T01:12:31;3.60;;;2.07;;
11807;SDS011;5961;42.640;23.380;2022-08-03T01:15:07;4.30;;;2.40;;
11807;SDS011;5961;42.640;23.380;2022-08-03T01:17:40;3.00;;;1.90;;
11807;SDS011;5961;42.640;23.380;2022-08-03T01:20:13;2.00;;;1.90;;
11807;SDS011;5961;42.640;23.380;2022-08-03T01:22:45;2.43;;;2.23;;
11807;SDS011;5961;42.640;23.380;2022-08-03T01:25:27;2.20;;;2.10;;
11807;SDS011;5961;42.640;23.380;2022-08-03T01:28:03;2.47;;;2.27;;
11807;SDS011;5961;42.640;23.380;2022-08-03T01:30:44;2.80;;;2.00;;
11807;SDS011;5961;42.640;23.380;2022-08-03T01:33:14;2.30;;;2.20;;
11807;SDS011;5961;42.640;23.380;2022-08-03T01:35:45;2.30;;;2.10;;
11807;SDS011;5961;42.640;23.380;2022-08-03T01:38:17;2.20;;;2.10;;
11807;SDS011;5961;42.640;23.380;2022-08-03T01:40:47;2.30;;;2.20;;
11807;SDS011;5961;42.640;23.380;2022-08-03T01:43:18;2.23;;;2.10;;
11807;SDS011;5961;42.640;23.380;2022-08-03T01:45:53;2.57;;;2.37;;
11807;SDS011;5961;42.640;23.380;2022-08-03T01:48:21;2.10;;;2.00;;
11807;SDS011;5961;42.640;23.380;2022-08-03T01:50:48;2.33;;;2.13;;
11807;SDS011;5961;42.640;23.380;2022-08-03T01:53:16;2.13;;;2.00;;
11807;SDS011;5961;42.640;23.380;2022-08-03T01:55:46;1.90;;;1.80;;
11807;SDS011;5961;42.640;23.380;2022-08-03T01:58:17;2.13;;;2.03;;
11807;SDS011;5961;42.640;23.380;2022-08-03T02:00:46;4.50;;;2.27;;
11807;SDS011;5961;42.640;23.380;2022-08-03T02:03:16;2.73;;;2.33;;
11807;SDS011;5961;42.640;23.380;2022-08-03T02:05:45;4.50;;;2.03;;
11807;SDS011;5961;42.640;23.380;2022-08-03T02:08:13;2.30;;;2.10;;
11807;SDS011;5961;42.640;23.380;2022-08-03T02:10:43;2.10;;;1.90;;
11807;SDS011;5961;42.640;23.380;2022-08-03T02:13:12;2.70;;;2.03;;
11807;SDS011;5961;42.640;23.380;2022-08-03T02:15:42;2.17;;;2.07;;
11807;SDS011;5961;42.640;23.380;2022-08-03T02:18:10;2.23;;;2.03;;
11807;SDS011;5961;42.640;23.380;2022-08-03T02:20:40;2.33;;;2.23;;
11807;SDS011;5961;42.640;23.380;2022-08-03T02:23:09;2.33;;;2.13;;
11807;SDS011;5961;42.640;23.380;2022-08-03T02:25:37;2.73;;;2.10;;
11807;SDS011;5961;42.640;23.380;2022-08-03T02:28:10;2.37;;;2.23;;
11807;SDS011;5961;42.640;23.380;2022-08-03T02:30:42;2.63;;;2.10;;
11807;SDS011;5961;42.640;23.380;2022-08-03T02:33:13;4.23;;;2.60;;
11807;SDS011;5961;42.640;23.380;2022-08-03T02:35:44;2.20;;;2.10;;
11807;SDS011;5961;42.640;23.380;2022-08-03T02:38:14;4.30;;;2.27;;
11807;SDS011;5961;42.640;23.380;2022-08-03T02:40:43;2.40;;;2.20;;
11807;SDS011;5961;42.640;23.380;2022-08-03T02:43:13;2.80;;;2.30;;
11807;SDS011;5961;42.640;23.380;2022-08-03T02:45:44;2.83;;;2.53;;
11807;SDS011;5961;42.640;23.380;2022-08-03T02:48:15;2.50;;;2.40;;
11807;SDS011;5961;42.640;23.380;2022-08-03T02:50:45;4.43;;;2.43;;
11807;SDS011;5961;42.640;23.380;2022-08-03T02:53:13;3.00;;;2.63;;
11807;SDS011;5961;42.640;23.380;2022-08-03T02:55:42;3.30;;;2.70;;
11807;SDS011;5961;42.640;23.380;2022-08-03T02:58:12;3.20;;;2.57;;
11807;SDS011;5961;42.640;23.380;2022-08-03T03:00:42;2.83;;;2.53;;
11807;SDS011;5961;42.640;23.380;2022-08-03T03:03:10;2.73;;;2.53;;
11807;SDS011;5961;42.640;23.380;2022-08-03T03:05:37;5.07;;;2.47;;
11807;SDS011;5961;42.640;23.380;2022-08-03T03:08:07;2.70;;;2.50;;
11807;SDS011;5961;42.640;23.380;2022-08-03T03:10:37;3.10;;;2.57;;
11807;SDS011;5961;42.640;23.380;2022-08-03T03:13:05;2.67;;;2.37;;
11807;SDS011;5961;42.640;23.380;2022-08-03T03:15:32;3.60;;;2.53;;
11807;SDS011;5961;42.640;23.380;2022-08-03T03:18:01;4.23;;;2.57;;
11807;SDS011;5961;42.640;23.380;2022-08-03T03:20:29;3.83;;;2.37;;
11807;SDS011;5961;42.640;23.380;2022-08-03T03:22:57;2.53;;;2.10;;
11807;SDS011;5961;42.640;23.380;2022-08-03T03:25:26;4.53;;;2.47;;
11807;SDS011;5961;42.640;23.380;2022-08-03T03:27:54;2.67;;;2.10;;
11807;SDS011;5961;42.640;23.380;2022-08-03T03:30:21;4.30;;;2.40;;
11807;SDS011;5961;42.640;23.380;2022-08-03T03:32:48;2.57;;;2.37;;
11807;SDS011;5961;42.640;23.380;2022-08-03T03:35:15;3.43;;;2.50;;
11807;SDS011;5961;42.640;23.380;2022-08-03T03:37:42;2.20;;;2.00;;
11807;SDS011;5961;42.640;23.380;2022-08-03T03:40:09;2.50;;;2.20;;
11807;SDS011;5961;42.640;23.380;2022-08-03T03:42:38;2.73;;;2.30;;
11807;SDS011;5961;42.640;23.380;2022-08-03T03:45:06;2.30;;;2.20;;
11807;SDS011;5961;42.640;23.380;2022-08-03T03:47:33;2.53;;;2.33;;
11807;SDS011;5961;42.640;23.380;2022-08-03T03:50:01;4.00;;;2.20;;
11807;SDS011;5961;42.640;23.380;2022-08-03T03:52:27;2.93;;;2.30;;
11807;SDS011;5961;42.640;23.380;2022-08-03T03:54:54;2.50;;;2.30;;
11807;SDS011;5961;42.640;23.380;2022-08-03T03:57:21;2.33;;;2.20;;
11807;SDS011;5961;42.640;23.380;2022-08-03T03:59:49;3.00;;;2.33;;
11807;SDS011;5961;42.640;23.380;2022-08-03T04:02:16;3.27;;;2.37;;
11807;SDS011;5961;42.640;23.380;2022-08-03T04:04:43;2.53;;;2.33;;
11807;SDS011;5961;42.640;23.380;2022-08-03T04:07:27;2.97;;;2.60;;
11807;SDS011;5961;42.640;23.380;2022-08-03T04:10:21;3.10;;;2.80;;
11807;SDS011;5961;42.640;23.380;2022-08-03T04:13:08;3.20;;;2.90;;
11807;SDS011;5961;42.640;23.380;2022-08-03T04:15:38;4.20;;;3.00;;
11807;SDS011;5961;42.640;23.380;2022-08-03T04:18:07;4.27;;;2.90;;
11807;SDS011;5961;42.640;23.380;2022-08-03T04:20:37;2.97;;;2.70;;
11807;SDS011;5961;42.640;23.380;2022-08-03T04:23:05;3.40;;;2.80;;
11807;SDS011;5961;42.640;23.380;2022-08-03T04:25:33;3.17;;;2.87;;
11807;SDS011;5961;42.640;23.380;2022-08-03T04:28:05;5.20;;;3.10;;
11807;SDS011;5961;42.640;23.380;2022-08-03T04:30:35;3.10;;;2.80;;
11807;SDS011;5961;42.640;23.380;2022-08-03T04:33:05;4.30;;;3.50;;
11807;SDS011;5961;42.640;23.380;2022-08-03T04:35:33;3.10;;;2.80;;
11807;SDS011;5961;42.640;23.380;2022-08-03T04:38:02;5.43;;;3.63;;
11807;SDS011;5961;42.640;23.380;2022-08-03T04:40:33;6.33;;;4.53;;
11807;SDS011;5961;42.640;23.380;2022-08-03T04:43:01;4.50;;;4.10;;
11807;SDS011;5961;42.640;23.380;2022-08-03T04:45:30;9.77;;;5.90;;
11807;SDS011;5961;42.640;23.380;2022-08-03T04:47:59;9.50;;;5.60;;
11807;SDS011;5961;42.640;23.380;2022-08-03T04:50:27;6.87;;;5.13;;
11807;SDS011;5961;42.640;23.380;2022-08-03T04:52:54;4.90;;;4.40;;
11807;SDS011;5961;42.640;23.380;2022-08-03T04:55:24;5.53;;;4.87;;
11807;SDS011;5961;42.640;23.380;2022-08-03T04:57:52;5.13;;;3.50;;
11807;SDS011;5961;42.640;23.380;2022-08-03T05:00:19;3.77;;;3.17;;
11807;SDS011;5961;42.640;23.380;2022-08-03T05:02:46;5.07;;;3.33;;
11807;SDS011;5961;42.640;23.380;2022-08-03T05:05:13;3.00;;;2.63;;
11807;SDS011;5961;42.640;23.380;2022-08-03T05:07:42;6.33;;;2.60;;
11807;SDS011;5961;42.640;23.380;2022-08-03T05:10:10;4.03;;;2.40;;
11807;SDS011;5961;42.640;23.380;2022-08-03T05:12:38;3.87;;;2.90;;
11807;SDS011;5961;42.640;23.380;2022-08-03T05:15:05;4.40;;;2.90;;
11807;SDS011;5961;42.640;23.380;2022-08-03T05:17:32;3.23;;;2.73;;
11807;SDS011;5961;42.640;23.380;2022-08-03T05:20:00;4.17;;;3.23;;
11807;SDS011;5961;42.640;23.380;2022-08-03T05:22:28;7.93;;;3.43;;
11807;SDS011;5961;42.640;23.380;2022-08-03T05:24:56;6.40;;;3.00;;
11807;SDS011;5961;42.640;23.380;2022-08-03T05:27:23;11.27;;;4.40;;
11807;SDS011;5961;42.640;23.380;2022-08-03T05:29:51;8.30;;;3.70;;
11807;SDS011;5961;42.640;23.380;2022-08-03T05:32:17;9.45;;;4.07;;
11807;SDS011;5961;42.640;23.380;2022-08-03T05:34:44;6.80;;;4.00;;
11807;SDS011;5961;42.640;23.380;2022-08-03T05:37:11;7.87;;;3.63;;
11807;SDS011;5961;42.640;23.380;2022-08-03T05:39:37;8.97;;;3.87;;
11807;SDS011;5961;42.640;23.380;2022-08-03T05:42:06;8.93;;;3.30;;
11807;SDS011;5961;42.640;23.380;2022-08-03T05:44:32;6.03;;;3.80;;
11807;SDS011;5961;42.640;23.380;2022-08-03T05:47:02;4.30;;;3.60;;
11807;SDS011;5961;42.640;23.380;2022-08-03T05:49:29;5.85;;;3.80;;
11807;SDS011;5961;42.640;23.380;2022-08-03T05:51:56;8.37;;;5.47;;
11807;SDS011;5961;42.640;23.380;2022-08-03T05:54:22;5.13;;;3.75;;
11807;SDS011;5961;42.640;23.380;2022-08-03T05:56:49;4.88;;;4.35;;
11807;SDS011;5961;42.640;23.380;2022-08-03T05:59:17;4.97;;;4.28;;
11807;SDS011;5961;42.640;23.380;2022-08-03T06:01:44;5.47;;;4.20;;
11807;SDS011;5961;42.640;23.380;2022-08-03T06:04:11;8.65;;;4.90;;
11807;SDS011;5961;42.640;23.380;2022-08-03T06:06:37;16.02;;;13.85;;
11807;SDS011;5961;42.640;23.380;2022-08-03T06:09:04;9.43;;;5.78;;
11807;SDS011;5961;42.640;23.380;2022-08-03T06:11:31;4.40;;;4.00;;
11807;SDS011;5961;42.640;23.380;2022-08-03T06:13:58;4.32;;;3.47;;
11807;SDS011;5961;42.640;23.380;2022-08-03T06:16:26;8.23;;;6.57;;
11807;SDS011;5961;42.640;23.380;2022-08-03T06:18:53;17.63;;;14.40;;
11807;SDS011;5961;42.640;23.380;2022-08-03T06:21:20;10.80;;;9.02;;
11807;SDS011;5961;42.640;23.380;2022-08-03T06:23:47;9.25;;;7.35;;
11807;SDS011;5961;42.640;23.380;2022-08-03T06:26:13;7.07;;;5.47;;
11807;SDS011;5961;42.640;23.380;2022-08-03T06:28:40;8.27;;;7.30;;
11807;SDS011;5961;42.640;23.380;2022-08-03T06:31:09;10.13;;;7.22;;
11807;SDS011;5961;42.640;23.380;2022-08-03T06:33:37;10.57;;;5.70;;
11807;SDS011;5961;42.640;23.380;2022-08-03T06:36:04;7.55;;;5.13;;
11807;SDS011;5961;42.640;23.380;2022-08-03T06:38:31;9.27;;;4.43;;
11807;SDS011;5961;42.640;23.380;2022-08-03T06:40:58;7.47;;;4.22;;
11807;SDS011;5961;42.640;23.380;2022-08-03T06:43:25;5.72;;;4.32;;
11807;SDS011;5961;42.640;23.380;2022-08-03T06:45:52;6.65;;;4.60;;
11807;SDS011;5961;42.640;23.380;2022-08-03T06:48:18;8.18;;;4.32;;
11807;SDS011;5961;42.640;23.380;2022-08-03T06:50:46;7.03;;;3.67;;
11807;SDS011;5961;42.640;23.380;2022-08-03T06:53:13;4.53;;;4.00;;
11807;SDS011;5961;42.640;23.380;2022-08-03T06:55:40;6.35;;;4.07;;
11807;SDS011;5961;42.640;23.380;2022-08-03T06:58:06;5.60;;;3.63;;
11807;SDS011;5961;42.640;23.380;2022-08-03T07:00:33;4.75;;;4.00;;
11807;SDS011;5961;42.640;23.380;2022-08-03T07:03:00;5.90;;;3.50;;
11807;SDS011;5961;42.640;23.380;2022-08-03T07:05:26;7.68;;;3.70;;
11807;SDS011;5961;42.640;23.380;2022-08-03T07:07:56;5.03;;;3.70;;
11807;SDS011;5961;42.640;23.380;2022-08-03T07:10:23;6.07;;;3.55;;
11807;SDS011;5961;42.640;23.380;2022-08-03T07:12:50;5.88;;;4.00;;
11807;SDS011;5961;42.640;23.380;2022-08-03T07:15:16;7.43;;;3.90;;
11807;SDS011;5961;42.640;23.380;2022-08-03T07:17:44;5.25;;;3.72;;
11807;SDS011;5961;42.640;23.380;2022-08-03T07:20:10;9.50;;;4.03;;
11807;SDS011;5961;42.640;23.380;2022-08-03T07:22:39;7.15;;;4.07;;
11807;SDS011;5961;42.640;23.380;2022-08-03T07:25:08;9.88;;;5.80;;
11807;SDS011;5961;42.640;23.380;2022-08-03T07:27:35;8.70;;;4.57;;
11807;SDS011;5961;42.640;23.380;2022-08-03T07:30:04;7.50;;;4.50;;
11807;SDS011;5961;42.640;23.380;2022-08-03T07:32:33;8.02;;;4.40;;
11807;SDS011;5961;42.640;23.380;2022-08-03T07:35:00;7.55;;;5.28;;
11807;SDS011;5961;42.640;23.380;2022-08-03T07:37:27;8.88;;;4.90;;
11807;SDS011;5961;42.640;23.380;2022-08-03T07:39:54;10.25;;;4.60;;
11807;SDS011;5961;42.640;23.380;2022-08-03T07:42:22;8.10;;;5.30;;
11807;SDS011;5961;42.640;23.380;2022-08-03T07:44:49;7.85;;;5.00;;
11807;SDS011;5961;42.640;23.380;2022-08-03T07:47:17;11.25;;;5.75;;
11807;SDS011;5961;42.640;23.380;2022-08-03T07:49:44;4.50;;;4.10;;
11807;SDS011;5961;42.640;23.380;2022-08-03T07:52:10;5.82;;;4.47;;
11807;SDS011;5961;42.640;23.380;2022-08-03T07:54:54;8.18;;;5.57;;
11807;SDS011;5961;42.640;23.380;2022-08-03T07:57:23;5.95;;;4.63;;
11807;SDS011;5961;42.640;23.380;2022-08-03T07:59:49;6.55;;;4.05;;
11807;SDS011;5961;42.640;23.380;2022-08-03T08:02:16;5.72;;;4.70;;
11807;SDS011;5961;42.640;23.380;2022-08-03T08:04:43;8.25;;;4.07;;
11807;SDS011;5961;42.640;23.380;2022-08-03T08:07:10;4.63;;;3.75;;
11807;SDS011;5961;42.640;23.380;2022-08-03T08:09:36;4.47;;;3.85;;
11807;SDS011;5961;42.640;23.380;2022-08-03T08:12:03;6.40;;;4.20;;
11807;SDS011;5961;42.640;23.380;2022-08-03T08:14:33;5.22;;;4.15;;
11807;SDS011;5961;42.640;23.380;2022-08-03T08:17:00;6.88;;;3.97;;
11807;SDS011;5961;42.640;23.380;2022-08-03T08:19:27;6.97;;;3.95;;
11807;SDS011;5961;42.640;23.380;2022-08-03T08:21:54;6.20;;;4.25;;
11807;SDS011;5961;42.640;23.380;2022-08-03T08:24:20;7.43;;;4.20;;
11807;SDS011;5961;42.640;23.380;2022-08-03T08:26:47;6.03;;;3.90;;
11807;SDS011;5961;42.640;23.380;2022-08-03T08:29:14;6.22;;;3.90;;
11807;SDS011;5961;42.640;23.380;2022-08-03T08:31:42;5.65;;;4.00;;
11807;SDS011;5961;42.640;23.380;2022-08-03T08:34:09;6.10;;;4.28;;
11807;SDS011;5961;42.640;23.380;2022-08-03T08:36:35;4.90;;;3.78;;
11807;SDS011;5961;42.640;23.380;2022-08-03T08:39:02;5.53;;;3.95;;
11807;SDS011;5961;42.640;23.380;2022-08-03T08:41:29;10.15;;;4.30;;
11807;SDS011;5961;42.640;23.380;2022-08-03T08:43:57;7.75;;;3.83;;
11807;SDS011;5961;42.640;23.380;2022-08-03T08:46:24;4.25;;;3.70;;
11807;SDS011;5961;42.640;23.380;2022-08-03T08:48:53;6.57;;;3.75;;
11807;SDS011;5961;42.640;23.380;2022-08-03T08:51:20;5.32;;;4.75;;
11807;SDS011;5961;42.640;23.380;2022-08-03T08:53:52;4.88;;;4.35;;
11807;SDS011;5961;42.640;23.380;2022-08-03T08:56:20;4.90;;;3.90;;
11807;SDS011;5961;42.640;23.380;2022-08-03T08:58:51;4.47;;;3.72;;
11807;SDS011;5961;42.640;23.380;2022-08-03T09:01:19;6.35;;;4.20;;
11807;SDS011;5961;42.640;23.380;2022-08-03T09:03:46;5.03;;;4.28;;
11807;SDS011;5961;42.640;23.380;2022-08-03T09:06:14;4.78;;;4.20;;
11807;SDS011;5961;42.640;23.380;2022-08-03T09:08:41;10.02;;;4.22;;
11807;SDS011;5961;42.640;23.380;2022-08-03T09:11:08;13.27;;;4.55;;
11807;SDS011;5961;42.640;23.380;2022-08-03T09:13:34;6.20;;;4.15;;
11807;SDS011;5961;42.640;23.380;2022-08-03T09:16:08;6.10;;;4.30;;
11807;SDS011;5961;42.640;23.380;2022-08-03T09:18:36;7.03;;;3.92;;
11807;SDS011;5961;42.640;23.380;2022-08-03T09:21:17;7.57;;;3.67;;
11807;SDS011;5961;42.640;23.380;2022-08-03T09:23:46;6.78;;;4.18;;
11807;SDS011;5961;42.640;23.380;2022-08-03T09:26:21;4.95;;;3.78;;
11807;SDS011;5961;42.640;23.380;2022-08-03T09:28:55;8.27;;;3.70;;
11807;SDS011;5961;42.640;23.380;2022-08-03T09:31:32;5.97;;;3.70;;
11807;SDS011;5961;42.640;23.380;2022-08-03T09:34:00;6.43;;;3.65;;
11807;SDS011;5961;42.640;23.380;2022-08-03T09:36:37;6.22;;;3.03;;
11807;SDS011;5961;42.640;23.380;2022-08-03T09:39:06;2.85;;;2.65;;
11807;SDS011;5961;42.640;23.380;2022-08-03T09:41:36;4.32;;;3.38;;
11807;SDS011;5961;42.640;23.380;2022-08-03T09:44:04;3.92;;;3.53;;
11807;SDS011;5961;42.640;23.380;2022-08-03T09:46:30;3.92;;;3.35;;
11807;SDS011;5961;42.640;23.380;2022-08-03T09:49:10;4.15;;;3.20;;
11807;SDS011;5961;42.640;23.380;2022-08-03T09:51:39;4.25;;;3.50;;
11807;SDS011;5961;42.640;23.380;2022-08-03T09:54:06;6.72;;;3.50;;
11807;SDS011;5961;42.640;23.380;2022-08-03T09:56:37;4.00;;;3.00;;
11807;SDS011;5961;42.640;23.380;2022-08-03T09:59:04;4.05;;;3.30;;
11807;SDS011;5961;42.640;23.380;2022-08-03T10:01:31;4.68;;;3.25;;
11807;SDS011;5961;42.640;23.380;2022-08-03T10:03:59;5.03;;;3.20;;
11807;SDS011;5961;42.640;23.380;2022-08-03T10:06:26;3.03;;;2.78;;
11807;SDS011;5961;42.640;23.380;2022-08-03T10:09:04;3.55;;;2.97;;
11807;SDS011;5961;42.640;23.380;2022-08-03T10:11:32;3.53;;;3.22;;
11807;SDS011;5961;42.640;23.380;2022-08-03T10:14:01;3.78;;;3.45;;
11807;SDS011;5961;42.640;23.380;2022-08-03T10:16:29;4.45;;;3.50;;
11807;SDS011;5961;42.640;23.380;2022-08-03T10:18:59;3.83;;;3.53;;
11807;SDS011;5961;42.640;23.380;2022-08-03T10:21:26;3.42;;;3.22;;
11807;SDS011;5961;42.640;23.380;2022-08-03T10:23:57;4.00;;;3.70;;
11807;SDS011;5961;42.640;23.380;2022-08-03T10:26:28;3.92;;;3.22;;
11807;SDS011;5961;42.640;23.380;2022-08-03T10:28:56;3.50;;;3.20;;
11807;SDS011;5961;42.640;23.380;2022-08-03T10:31:25;3.83;;;3.33;;
11807;SDS011;5961;42.640;23.380;2022-08-03T10:33:59;4.15;;;3.30;;
11807;SDS011;5961;42.640;23.380;2022-08-03T10:36:30;3.70;;;3.40;;
11807;SDS011;5961;42.640;23.380;2022-08-03T10:38:58;4.30;;;3.92;;
11807;SDS011;5961;42.640;23.380;2022-08-03T10:41:31;3.28;;;3.00;;
11807;SDS011;5961;42.640;23.380;2022-08-03T10:44:02;3.97;;;3.42;;
11807;SDS011;5961;42.640;23.380;2022-08-03T10:46:32;4.50;;;3.30;;
11807;SDS011;5961;42.640;23.380;2022-08-03T10:49:00;5.82;;;3.15;;
11807;SDS011;5961;42.640;23.380;2022-08-03T10:51:28;4.00;;;3.60;;
11807;SDS011;5961;42.640;23.380;2022-08-03T10:53:56;4.35;;;3.70;;
11807;SDS011;5961;42.640;23.380;2022-08-03T10:56:40;7.32;;;4.90;;
11807;SDS011;5961;42.640;23.380;2022-08-03T11:02:22;5.13;;;3.92;;
11807;SDS011;5961;42.640;23.380;2022-08-03T11:05:24;3.50;;;3.20;;
11807;SDS011;5961;42.640;23.380;2022-08-03T11:10:42;6.25;;;3.40;;
11807;SDS011;5961;42.640;23.380;2022-08-03T11:13:11;4.25;;;2.88;;
11807;SDS011;5961;42.640;23.380;2022-08-03T11:15:42;5.50;;;3.40;;
11807;SDS011;5961;42.640;23.380;2022-08-03T11:18:11;3.33;;;2.90;;
11807;SDS011;5961;42.640;23.380;2022-08-03T11:20:45;3.70;;;2.95;;
11807;SDS011;5961;42.640;23.380;2022-08-03T11:23:13;3.47;;;2.97;;
11807;SDS011;5961;42.640;23.380;2022-08-03T11:28:37;3.72;;;2.78;;
11807;SDS011;5961;42.640;23.380;2022-08-03T11:34:12;3.13;;;2.92;;
11807;SDS011;5961;42.640;23.380;2022-08-03T11:39:52;3.25;;;2.95;;
11807;SDS011;5961;42.640;23.380;2022-08-03T11:45:09;3.90;;;3.60;;
11807;SDS011;5961;42.640;23.380;2022-08-03T11:47:37;7.47;;;4.80;;
11807;SDS011;5961;42.640;23.380;2022-08-03T11:50:05;4.47;;;3.25;;
11807;SDS011;5961;42.640;23.380;2022-08-03T11:52:39;3.85;;;3.00;;
11807;SDS011;5961;42.640;23.380;2022-08-03T11:55:14;4.57;;;3.45;;
11807;SDS011;5961;42.640;23.380;2022-08-03T11:57:43;3.50;;;3.30;;
11807;SDS011;5961;42.640;23.380;2022-08-03T12:00:28;4.45;;;3.80;;
11807;SDS011;5961;42.640;23.380;2022-08-03T12:02:57;3.47;;;3.15;;
11807;SDS011;5961;42.640;23.380;2022-08-03T12:05:38;4.13;;;3.30;;
11807;SDS011;5961;42.640;23.380;2022-08-03T12:08:08;3.40;;;3.20;;
11807;SDS011;5961;42.640;23.380;2022-08-03T12:10:35;4.40;;;3.20;;
11807;SDS011;5961;42.640;23.380;2022-08-03T12:13:03;4.22;;;2.97;;
11807;SDS011;5961;42.640;23.380;2022-08-03T12:15:34;6.03;;;4.32;;
11807;SDS011;5961;42.640;23.380;2022-08-03T12:18:03;6.05;;;3.58;;
11807;SDS011;5961;42.640;23.380;2022-08-03T12:20:38;3.88;;;3.58;;
11807;SDS011;5961;42.640;23.380;2022-08-03T12:23:05;3.42;;;3.15;;
11807;SDS011;5961;42.640;23.380;2022-08-03T12:25:33;5.70;;;4.03;;
11807;SDS011;5961;42.640;23.380;2022-08-03T12:28:08;5.68;;;3.22;;
11807;SDS011;5961;42.640;23.380;2022-08-03T12:30:38;3.50;;;3.15;;
11807;SDS011;5961;42.640;23.380;2022-08-03T12:33:15;4.82;;;3.30;;
11807;SDS011;5961;42.640;23.380;2022-08-03T12:35:45;8.88;;;3.10;;
11807;SDS011;5961;42.640;23.380;2022-08-03T12:38:12;4.55;;;4.15;;
11807;SDS011;5961;42.640;23.380;2022-08-03T12:40:53;4.95;;;3.83;;
11807;SDS011;5961;42.640;23.380;2022-08-03T12:43:21;3.60;;;3.30;;
11807;SDS011;5961;42.640;23.380;2022-08-03T12:45:49;5.07;;;3.45;;
11807;SDS011;5961;42.640;23.380;2022-08-03T12:48:16;5.68;;;3.25;;
11807;SDS011;5961;42.640;23.380;2022-08-03T12:50:42;3.38;;;3.08;;
11807;SDS011;5961;42.640;23.380;2022-08-03T12:53:09;5.90;;;3.20;;
11807;SDS011;5961;42.640;23.380;2022-08-03T12:55:36;5.25;;;3.63;;
11807;SDS011;5961;42.640;23.380;2022-08-03T12:58:04;3.47;;;3.15;;
11807;SDS011;5961;42.640;23.380;2022-08-03T13:00:32;3.70;;;3.15;;
11807;SDS011;5961;42.640;23.380;2022-08-03T13:03:01;3.83;;;3.50;;
11807;SDS011;5961;42.640;23.380;2022-08-03T13:05:30;8.60;;;3.45;;
11807;SDS011;5961;42.640;23.380;2022-08-03T13:07:57;5.18;;;3.17;;
11807;SDS011;5961;42.640;23.380;2022-08-03T13:10:27;9.70;;;3.25;;
11807;SDS011;5961;42.640;23.380;2022-08-03T13:12:55;4.68;;;3.63;;
11807;SDS011;5961;42.640;23.380;2022-08-03T13:15:24;3.35;;;3.05;;
11807;SDS011;5961;42.640;23.380;2022-08-03T13:17:52;3.85;;;3.47;;
11807;SDS011;5961;42.640;23.380;2022-08-03T13:20:20;5.68;;;3.78;;
11807;SDS011;5961;42.640;23.380;2022-08-03T13:22:48;3.30;;;3.10;;
11807;SDS011;5961;42.640;23.380;2022-08-03T13:25:15;5.53;;;3.58;;
11807;SDS011;5961;42.640;23.380;2022-08-03T13:27:42;11.35;;;3.80;;
11807;SDS011;5961;42.640;23.380;2022-08-03T13:30:09;13.77;;;4.13;;
11807;SDS011;5961;42.640;23.380;2022-08-03T13:32:36;6.47;;;4.18;;
11807;SDS011;5961;42.640;23.380;2022-08-03T13:35:04;10.10;;;4.05;;
11807;SDS011;5961;42.640;23.380;2022-08-03T13:37:33;6.10;;;3.85;;
11807;SDS011;5961;42.640;23.380;2022-08-03T13:40:00;8.23;;;4.55;;
11807;SDS011;5961;42.640;23.380;2022-08-03T13:42:29;4.25;;;3.70;;
11807;SDS011;5961;42.640;23.380;2022-08-03T13:44:57;8.55;;;4.05;;
11807;SDS011;5961;42.640;23.380;2022-08-03T13:47:23;5.35;;;3.80;;
11807;SDS011;5961;42.640;23.380;2022-08-03T13:49:50;10.00;;;4.03;;
11807;SDS011;5961;42.640;23.380;2022-08-03T13:52:17;7.25;;;6.35;;
11807;SDS011;5961;42.640;23.380;2022-08-03T13:54:45;5.95;;;4.80;;
11807;SDS011;5961;42.640;23.380;2022-08-03T13:57:12;5.88;;;5.05;;
11807;SDS011;5961;42.640;23.380;2022-08-03T13:59:39;4.45;;;4.05;;
11807;SDS011;5961;42.640;23.380;2022-08-03T14:02:05;4.80;;;3.72;;
11807;SDS011;5961;42.640;23.380;2022-08-03T14:04:32;4.18;;;3.65;;
11807;SDS011;5961;42.640;23.380;2022-08-03T14:06:59;7.35;;;3.95;;
11807;SDS011;5961;42.640;23.380;2022-08-03T14:09:25;7.82;;;3.65;;
11807;SDS011;5961;42.640;23.380;2022-08-03T14:11:53;3.60;;;3.25;;
11807;SDS011;5961;42.640;23.380;2022-08-03T14:14:20;6.20;;;3.92;;
11807;SDS011;5961;42.640;23.380;2022-08-03T14:16:47;4.35;;;3.63;;
11807;SDS011;5961;42.640;23.380;2022-08-03T14:19:14;4.30;;;3.58;;
11807;SDS011;5961;42.640;23.380;2022-08-03T14:21:40;3.70;;;3.20;;
11807;SDS011;5961;42.640;23.380;2022-08-03T14:24:07;5.88;;;3.60;;
11807;SDS011;5961;42.640;23.380;2022-08-03T14:26:34;4.30;;;3.90;;
11807;SDS011;5961;42.640;23.380;2022-08-03T14:29:02;4.63;;;3.58;;
11807;SDS011;5961;42.640;23.380;2022-08-03T14:31:29;4.78;;;3.50;;
11807;SDS011;5961;42.640;23.380;2022-08-03T14:33:56;4.95;;;3.25;;
11807;SDS011;5961;42.640;23.380;2022-08-03T14:36:23;5.22;;;4.15;;
11807;SDS011;5961;42.640;23.380;2022-08-03T14:38:50;5.03;;;3.50;;
11807;SDS011;5961;42.640;23.380;2022-08-03T14:41:17;9.25;;;4.55;;
11807;SDS011;5961;42.640;23.380;2022-08-03T14:43:44;3.72;;;3.40;;
11807;SDS011;5961;42.640;23.380;2022-08-03T14:46:12;5.15;;;3.53;;
11807;SDS011;5961;42.640;23.380;2022-08-03T14:48:38;4.35;;;3.30;;
11807;SDS011;5961;42.640;23.380;2022-08-03T14:51:05;4.82;;;3.47;;
11807;SDS011;5961;42.640;23.380;2022-08-03T14:53:32;4.28;;;3.88;;
11807;SDS011;5961;42.640;23.380;2022-08-03T14:55:59;3.95;;;3.65;;
11807;SDS011;5961;42.640;23.380;2022-08-03T14:58:26;3.90;;;3.50;;
11807;SDS011;5961;42.640;23.380;2022-08-03T15:00:53;4.47;;;3.67;;
11807;SDS011;5961;42.640;23.380;2022-08-03T15:03:22;4.70;;;4.30;;
11807;SDS011;5961;42.640;23.380;2022-08-03T15:05:50;4.30;;;3.90;;
11807;SDS011;5961;42.640;23.380;2022-08-03T15:08:17;12.25;;;4.50;;
11807;SDS011;5961;42.640;23.380;2022-08-03T15:10:44;8.35;;;4.40;;
11807;SDS011;5961;42.640;23.380;2022-08-03T15:13:11;4.03;;;3.70;;
11807;SDS011;5961;42.640;23.380;2022-08-03T15:15:37;8.63;;;4.70;;